Time;durP1;ratioP1;P1;durP2;ratioP2;P2;SDS_P1;SDS_P2;PMS_P1;PMS_P2;Temp;Humidity;BMP_temperature;BMP_pressure;BME280_temperature;BME280_humidity;BME280_pressure;Samples;Min_cycle;Max_cycle;Signal;HPM_P1;HPM_P2
2023/08/03 00:00:23;;;;;;;10.68;4.65;;;;;;;15.67;100.00;96019.25;5069810;28;20438;-70
2023/08/03 00:02:51;;;;;;;10.13;4.25;;;;;;;15.64;100.00;96018.00;5069774;28;20399;-70
2023/08/03 00:05:19;;;;;;;8.77;4.30;;;;;;;15.62;100.00;96019.44;5051670;28;20435;-70
2023/08/03 00:07:46;;;;;;;12.77;4.63;;;;;;;15.60;100.00;96021.63;5069632;28;20946;-71
2023/08/03 00:10:12;;;;;;;20.02;4.65;;;;;;;15.62;100.00;96022.88;5069803;28;20427;-70
2023/08/03 00:12:39;;;;;;;12.88;4.80;;;;;;;15.64;100.00;96031.34;5069732;28;20457;-70
2023/08/03 00:15:07;;;;;;;11.57;4.43;;;;;;;15.67;100.00;96040.59;5069714;28;20396;-70
2023/08/03 00:17:33;;;;;;;10.50;4.20;;;;;;;15.71;100.00;96028.22;5069511;28;20956;-70
2023/08/03 00:20:00;;;;;;;17.65;5.43;;;;;;;15.76;100.00;96026.16;5069749;28;20502;-70
2023/08/03 00:22:26;;;;;;;10.68;4.63;;;;;;;15.80;100.00;96023.63;5069654;28;20793;-70
2023/08/03 00:24:53;;;;;;;15.60;4.93;;;;;;;15.80;100.00;96029.75;5069502;28;20450;-70
2023/08/03 00:27:19;;;;;;;25.70;5.80;;;;;;;15.81;100.00;96033.19;5051492;28;20427;-70
2023/08/03 00:29:45;;;;;;;20.90;5.53;;;;;;;15.80;100.00;96023.63;5069611;28;20412;-71
2023/08/03 00:32:13;;;;;;;13.00;4.63;;;;;;;15.80;100.00;96016.41;5070479;28;20396;-70
2023/08/03 00:34:39;;;;;;;10.52;3.97;;;;;;;15.82;100.00;96016.09;5073144;28;20431;-70
2023/08/03 00:37:05;;;;;;;7.07;3.90;;;;;;;15.78;100.00;96013.28;5072981;28;20411;-71
2023/08/03 00:39:31;;;;;;;16.42;5.18;;;;;;;15.65;100.00;96021.44;5073027;28;20400;-70
2023/08/03 00:41:58;;;;;;;17.67;4.80;;;;;;;15.71;100.00;96012.22;5073059;28;20404;-70
2023/08/03 00:44:24;;;;;;;27.25;6.20;;;;;;;15.77;100.00;96021.59;5072908;28;20399;-71
2023/08/03 00:46:51;;;;;;;16.53;5.37;;;;;;;15.77;100.00;96019.72;5072765;28;20474;-71
2023/08/03 00:49:19;;;;;;;35.20;6.47;;;;;;;15.66;100.00;96017.69;5072957;28;20414;-71
2023/08/03 00:51:45;;;;;;;21.23;5.80;;;;;;;15.67;100.00;96011.25;5072799;28;20422;-71
2023/08/03 00:54:11;;;;;;;17.08;4.68;;;;;;;15.70;100.00;96005.28;5072918;28;20403;-71
2023/08/03 00:56:38;;;;;;;11.87;4.37;;;;;;;15.69;100.00;96012.50;5072646;28;21032;-71
2023/08/03 00:59:05;;;;;;;23.88;4.93;;;;;;;15.68;100.00;96018.16;5072805;28;20496;-71
2023/08/03 01:01:31;;;;;;;15.93;4.60;;;;;;;15.73;100.00;96016.09;5072674;28;20411;-70
2023/08/03 01:03:57;;;;;;;23.60;5.10;;;;;;;15.79;100.00;96019.38;5072731;28;20950;-71
2023/08/03 01:06:25;;;;;;;19.63;5.55;;;;;;;15.79;100.00;96027.38;5072407;28;20407;-71
2023/08/03 01:08:51;;;;;;;17.35;5.22;;;;;;;15.75;100.00;96021.91;5072375;28;20403;-71
2023/08/03 01:11:18;;;;;;;21.77;4.97;;;;;;;15.90;100.00;96017.97;5072451;28;20402;-71
2023/08/03 01:13:44;;;;;;;26.23;5.55;;;;;;;15.85;100.00;96021.59;5072479;28;20403;-71
2023/08/03 01:16:10;;;;;;;25.23;5.90;;;;;;;16.05;100.00;96025.44;5072513;28;20980;-71
2023/08/03 01:18:37;;;;;;;16.05;4.90;;;;;;;16.00;100.00;96030.97;5072253;28;20400;-71
2023/08/03 01:21:05;;;;;;;30.38;6.32;;;;;;;15.86;100.00;96023.13;5072240;28;20445;-71
2023/08/03 01:23:33;;;;;;;25.75;5.20;;;;;;;15.85;100.00;96028.81;5072209;28;20418;-71
2023/08/03 01:25:59;;;;;;;24.02;5.32;;;;;;;15.90;100.00;96025.19;5072072;28;20432;-71
2023/08/03 01:28:25;;;;;;;31.33;5.38;;;;;;;15.98;100.00;96022.50;5071875;28;20450;-71
2023/08/03 01:30:51;;;;;;;20.02;4.40;;;;;;;16.15;100.00;96016.31;5072039;28;20905;-71
2023/08/03 01:33:17;;;;;;;27.10;5.10;;;;;;;16.06;100.00;96007.56;5072048;28;20422;-71
2023/08/03 01:35:44;;;;;;;26.15;5.15;;;;;;;16.05;100.00;95996.09;5072112;28;20406;-71
2023/08/03 01:38:13;;;;;;;18.38;4.15;;;;;;;16.04;100.00;96005.19;5071896;28;20407;-71
2023/08/03 01:40:42;;;;;;;17.88;4.88;;;;;;;16.02;100.00;95991.38;5072026;28;20392;-71
2023/08/03 01:43:08;;;;;;;35.97;5.78;;;;;;;15.93;100.00;96000.53;5071835;28;20959;-72
2023/08/03 01:45:34;;;;;;;24.65;5.00;;;;;;;16.00;100.00;95998.16;5071778;28;20415;-72
2023/08/03 01:48:00;;;;;;;15.45;3.72;;;;;;;15.92;100.00;96006.97;5071640;28;20927;-72
2023/08/03 01:50:26;;;;;;;14.13;3.70;;;;;;;15.91;100.00;96013.41;5071758;28;20408;-72
2023/08/03 01:52:53;;;;;;;21.05;4.10;;;;;;;15.92;100.00;96013.09;5071489;28;20486;-71
2023/08/03 01:55:19;;;;;;;20.77;4.43;;;;;;;15.88;100.00;96001.47;5071114;28;20433;-71
2023/08/03 01:57:46;;;;;;;18.40;3.50;;;;;;;15.78;100.00;96013.28;5071436;28;20416;-71
2023/08/03 02:00:13;;;;;;;21.83;4.10;;;;;;;15.83;100.00;96010.44;5071555;28;20403;-71
2023/08/03 02:02:39;;;;;;;25.48;4.30;;;;;;;15.79;100.00;96017.50;5071584;28;20492;-71
2023/08/03 02:05:06;;;;;;;13.90;3.53;;;;;;;15.85;100.00;96021.59;5071388;28;20877;-71
2023/08/03 02:07:44;;;;;;;14.23;3.63;;;;;;;15.79;100.00;96022.84;5071144;28;21214;-71
2023/08/03 02:10:10;;;;;;;16.83;3.65;;;;;;;15.52;100.00;96025.84;5071341;28;20406;-71
2023/08/03 02:12:37;;;;;;;15.38;2.92;;;;;;;15.67;100.00;96035.25;5071334;28;20722;-72
2023/08/03 02:15:06;;;;;;;12.10;3.10;;;;;;;15.64;100.00;96038.56;5071383;28;20421;-71
2023/08/03 02:17:33;;;;;;;13.73;3.13;;;;;;;15.66;100.00;96039.81;5071102;28;20396;-71
2023/08/03 02:19:59;;;;;;;12.73;3.03;;;;;;;15.63;100.00;96045.78;5071283;28;20976;-71
2023/08/03 02:22:25;;;;;;;13.38;3.22;;;;;;;15.59;100.00;96046.72;5071022;28;20404;-71
2023/08/03 02:24:52;;;;;;;11.68;3.40;;;;;;;15.56;100.00;96026.81;5070913;28;20411;-71
2023/08/03 02:27:18;;;;;;;27.73;4.03;;;;;;;15.43;100.00;96043.72;5070861;28;20521;-71
2023/08/03 02:29:44;;;;;;;21.50;3.78;;;;;;;15.56;100.00;96047.38;5071180;28;20404;-71
2023/08/03 02:32:11;;;;;;;22.25;3.60;;;;;;;15.55;100.00;96061.81;5070828;28;20411;-71
2023/08/03 02:34:38;;;;;;;16.42;3.92;;;;;;;15.57;100.00;96056.91;5070874;28;20411;-71
2023/08/03 02:37:04;;;;;;;17.98;3.50;;;;;;;15.55;100.00;96054.59;5070649;28;20479;-71
2023/08/03 02:39:30;;;;;;;23.20;3.75;;;;;;;15.59;100.00;96057.41;5070803;28;20404;-71
2023/08/03 02:41:57;;;;;;;18.70;3.65;;;;;;;15.61;100.00;96065.88;5070671;28;20403;-72
2023/08/03 02:44:23;;;;;;;14.07;3.30;;;;;;;15.61;100.00;96060.53;5070717;28;20512;-72
2023/08/03 02:46:49;;;;;;;7.57;2.78;;;;;;;15.60;100.00;96062.41;5070559;28;20411;-72
2023/08/03 02:49:17;;;;;;;22.67;3.90;;;;;;;15.61;100.00;96055.19;5070618;28;20439;-71
2023/08/03 02:51:43;;;;;;;9.02;3.15;;;;;;;15.63;100.00;96053.00;5070539;28;20403;-71
2023/08/03 02:54:09;;;;;;;30.42;4.00;;;;;;;15.50;100.00;96060.81;5070638;28;20400;-71
2023/08/03 02:56:36;;;;;;;22.70;3.88;;;;;;;15.54;100.00;96054.91;5069948;28;20952;-71
2023/08/03 02:59:02;;;;;;;21.87;3.50;;;;;;;15.51;100.00;96045.59;5070600;28;20422;-72
2023/08/03 03:01:28;;;;;;;13.00;3.00;;;;;;;15.48;100.00;96047.03;5070534;28;20400;-72
2023/08/03 03:03:54;;;;;;;21.52;3.50;;;;;;;15.42;100.00;96055.47;5070518;28;20414;-71
2023/08/03 03:06:22;;;;;;;12.35;3.10;;;;;;;15.46;100.00;96048.44;5070248;28;20923;-72
2023/08/03 03:08:48;;;;;;;15.40;3.22;;;;;;;15.35;100.00;96057.84;5070306;28;20400;-72
2023/08/03 03:11:14;;;;;;;14.00;3.22;;;;;;;15.35;100.00;96065.84;5070290;28;20486;-72
2023/08/03 03:13:40;;;;;;;24.98;3.88;;;;;;;15.38;100.00;96060.66;5070435;28;20400;-71
2023/08/03 03:16:07;;;;;;;22.90;3.25;;;;;;;15.36;100.00;96065.53;5070458;28;20400;-72
2023/08/03 03:18:33;;;;;;;21.95;3.97;;;;;;;15.37;100.00;96052.97;5070135;28;20412;-72
2023/08/03 03:20:59;;;;;;;19.65;4.10;;;;;;;15.37;100.00;96056.44;5052203;28;20465;-71
2023/08/03 03:23:26;;;;;;;18.63;3.60;;;;;;;15.42;100.00;96058.94;5070214;28;20457;-71
2023/08/03 03:25:53;;;;;;;16.80;3.42;;;;;;;15.36;100.00;96059.41;5070298;28;20415;-71
2023/08/03 03:28:19;;;;;;;29.00;4.22;;;;;;;15.35;100.00;96057.84;5070017;28;20498;-72
2023/08/03 03:30:45;;;;;;;24.55;3.70;;;;;;;15.26;100.00;96059.72;5070217;28;20427;-72
2023/08/03 03:33:11;;;;;;;25.42;4.53;;;;;;;15.37;100.00;96061.75;5070240;28;20438;-71
2023/08/03 03:35:37;;;;;;;23.25;3.42;;;;;;;15.32;100.00;96053.94;5070111;28;20419;-71
2023/08/03 03:38:04;;;;;;;17.67;3.45;;;;;;;15.31;100.00;96056.91;5069915;28;20431;-72
2023/08/03 03:40:31;;;;;;;21.90;3.85;;;;;;;15.21;100.00;96057.97;5070090;28;20482;-71
2023/08/03 03:42:57;;;;;;;22.57;3.63;;;;;;;15.22;100.00;96042.78;5069982;28;20414;-72
2023/08/03 03:45:24;;;;;;;28.67;3.90;;;;;;;15.00;100.00;96044.50;5069894;28;20414;-72
2023/08/03 03:47:50;;;;;;;24.85;3.70;;;;;;;15.16;100.00;96044.81;5069927;28;20399;-71
2023/08/03 03:50:16;;;;;;;23.10;3.37;;;;;;;15.11;100.00;96045.75;5069939;28;20407;-71
2023/08/03 03:52:42;;;;;;;30.90;3.78;;;;;;;14.90;100.00;96044.00;5069872;28;20406;-71
2023/08/03 03:55:08;;;;;;;14.57;3.50;;;;;;;15.13;100.00;96047.31;5069988;28;20403;-71
2023/08/03 03:57:36;;;;;;;18.88;3.35;;;;;;;15.12;100.00;96054.53;5069847;28;20399;-71
2023/08/03 04:00:04;;;;;;;17.45;3.00;;;;;;;15.02;100.00;96036.97;5070063;28;20395;-72
2023/08/03 04:02:30;;;;;;;17.13;2.88;;;;;;;15.09;100.00;96045.28;5069820;28;20427;-71
2023/08/03 04:04:57;;;;;;;22.73;3.53;;;;;;;15.10;100.00;96048.75;5069847;28;20904;-72
2023/08/03 04:07:23;;;;;;;12.57;2.70;;;;;;;15.09;100.00;96039.19;5070727;28;20846;-71
2023/08/03 04:09:49;;;;;;;14.27;3.75;;;;;;;15.07;100.00;96042.16;5073720;28;20400;-71
2023/08/03 04:12:15;;;;;;;14.95;3.20;;;;;;;15.09;100.00;96041.84;5073604;28;20487;-71
2023/08/03 04:14:42;;;;;;;22.77;3.38;;;;;;;14.96;100.00;96048.09;5073584;28;20399;-71
2023/08/03 04:17:09;;;;;;;19.50;3.28;;;;;;;15.10;100.00;96044.19;5073377;28;20399;-71
2023/08/03 04:19:35;;;;;;;21.00;3.17;;;;;;;14.97;100.00;96053.09;5073469;28;20446;-71
2023/08/03 04:22:01;;;;;;;15.70;2.60;;;;;;;15.07;100.00;96060.00;5073419;28;20410;-71
2023/08/03 04:24:28;;;;;;;16.27;2.60;;;;;;;14.92;100.00;96071.91;5073262;28;20982;-71
2023/08/03 04:26:54;;;;;;;17.77;2.83;;;;;;;15.07;100.00;96078.66;5073267;28;20438;-71
2023/08/03 04:29:20;;;;;;;13.98;2.50;;;;;;;15.00;100.00;96079.13;5073265;28;20404;-71
2023/08/03 04:31:48;;;;;;;18.00;2.30;;;;;;;15.10;100.00;96076.19;5073382;28;20953;-71
2023/08/03 04:34:14;;;;;;;14.48;2.40;;;;;;;15.13;100.00;96088.06;5073269;28;20738;-71
2023/08/03 04:36:42;;;;;;;14.80;2.80;;;;;;;15.07;100.00;96079.44;5073113;28;20395;-71
2023/08/03 04:39:08;;;;;;;6.63;1.75;;;;;;;15.18;100.00;96101.28;5073387;28;20399;-71
2023/08/03 04:41:34;;;;;;;11.88;2.20;;;;;;;15.13;100.00;96105.94;5073132;28;20773;-71
2023/08/03 04:44:01;;;;;;;15.13;2.20;;;;;;;15.31;100.00;96105.69;5073093;28;20396;-71
2023/08/03 04:46:27;;;;;;;7.15;1.60;;;;;;;15.29;100.00;96117.75;5072950;28;20959;-71
2023/08/03 04:48:55;;;;;;;7.97;1.92;;;;;;;15.36;100.00;96136.72;5072620;28;20496;-71
2023/08/03 04:51:21;;;;;;;14.50;2.00;;;;;;;15.44;100.00;96136.75;5072841;28;20522;-71
2023/08/03 04:53:47;;;;;;;9.23;2.15;;;;;;;15.43;100.00;96145.84;5072915;28;20461;-72
2023/08/03 04:56:13;;;;;;;11.93;1.55;;;;;;;15.49;100.00;96149.13;5072824;28;20403;-72
2023/08/03 04:58:39;;;;;;;9.20;1.83;;;;;;;15.63;100.00;96151.72;5072778;28;20426;-71
2023/08/03 05:01:05;;;;;;;6.97;1.58;;;;;;;15.63;100.00;96165.84;5072660;28;20449;-72
2023/08/03 05:03:32;;;;;;;9.32;1.50;;;;;;;15.64;100.00;96170.03;5072592;28;20794;-71
2023/08/03 05:05:59;;;;;;;5.97;1.73;;;;;;;15.69;100.00;96163.78;5054752;28;20415;-71
2023/08/03 05:08:25;;;;;;;9.32;1.40;;;;;;;15.55;100.00;96163.94;5072423;28;20414;-72
2023/08/03 05:10:51;;;;;;;3.83;1.40;;;;;;;15.43;100.00;96161.06;5072559;28;20955;-72
2023/08/03 05:13:18;;;;;;;9.63;1.30;;;;;;;15.42;100.00;96170.94;5072511;28;20483;-71
2023/08/03 05:15:46;;;;;;;3.53;1.30;;;;;;;15.37;100.00;96170.31;5072602;28;20408;-71
2023/08/03 05:18:13;;;;;;;8.10;1.83;;;;;;;15.33;100.00;96180.03;5071972;28;20439;-72
2023/08/03 05:20:39;;;;;;;8.68;1.52;;;;;;;15.25;100.00;96186.91;5072402;28;20414;-72
2023/08/03 05:23:08;;;;;;;8.73;1.90;;;;;;;15.25;100.00;96191.47;5072297;28;20479;-72
2023/08/03 05:25:35;;;;;;;8.13;1.60;;;;;;;15.29;100.00;96195.84;5072167;28;20399;-72
2023/08/03 05:28:01;;;;;;;8.00;1.30;;;;;;;15.27;100.00;96190.03;5072057;28;20881;-71
2023/08/03 05:30:28;;;;;;;10.00;2.30;;;;;;;15.33;100.00;96206.69;5072188;28;20395;-71
2023/08/03 05:32:54;;;;;;;6.00;1.80;;;;;;;15.29;100.00;96201.19;5072031;28;20402;-71
2023/08/03 05:35:20;;;;;;;10.15;1.65;;;;;;;15.33;100.00;96201.34;5072099;28;20434;-71
2023/08/03 05:37:46;;;;;;;10.53;1.73;;;;;;;15.36;100.00;96216.72;5071877;28;20896;-71
2023/08/03 05:40:14;;;;;;;5.45;1.48;;;;;;;15.22;100.00;96221.38;5054188;28;20418;-71
2023/08/03 05:42:41;;;;;;;16.52;2.15;;;;;;;14.99;100.00;96215.34;5071987;28;20451;-72
2023/08/03 05:45:10;;;;;;;8.33;1.50;;;;;;;15.14;100.00;96227.47;5053989;28;20407;-72
2023/08/03 05:47:38;;;;;;;6.68;1.50;;;;;;;15.31;100.00;96227.53;5071524;28;20892;-71
2023/08/03 05:50:11;;;;;;;6.70;1.48;;;;;;;15.21;100.00;96236.59;5071868;28;20483;-71
2023/08/03 05:52:37;;;;;;;7.07;1.60;;;;;;;15.34;100.00;96233.03;5071749;28;20521;-71
2023/08/03 05:55:03;;;;;;;11.60;1.60;;;;;;;15.33;100.00;96242.16;5071735;28;20408;-71
2023/08/03 05:57:31;;;;;;;6.90;1.67;;;;;;;15.48;100.00;96231.06;5071481;28;20403;-71
2023/08/03 05:59:57;;;;;;;11.05;1.60;;;;;;;15.29;100.00;96245.72;5071705;28;20399;-71
2023/08/03 06:02:35;;;;;;;12.75;2.35;;;;;;;15.42;100.00;96237.59;5053546;28;20470;-71
2023/08/03 06:05:01;;;;;;;8.27;2.00;;;;;;;15.50;100.00;96239.50;5071652;28;20488;-71
2023/08/03 06:07:27;;;;;;;5.40;1.40;;;;;;;15.48;100.00;96240.94;5071309;28;20434;-71
2023/08/03 06:09:54;;;;;;;7.23;1.80;;;;;;;15.37;100.00;96235.09;5071417;28;20407;-71
2023/08/03 06:12:20;;;;;;;6.70;1.80;;;;;;;15.42;100.00;96240.25;5071262;28;20404;-71
2023/08/03 06:14:47;;;;;;;7.57;1.60;;;;;;;15.49;100.00;96247.81;5071392;28;20885;-72
2023/08/03 06:17:14;;;;;;;7.47;1.55;;;;;;;15.51;100.00;96250.97;5070980;28;20395;-72
2023/08/03 06:19:40;;;;;;;9.75;1.73;;;;;;;15.47;100.00;96256.16;5071374;28;20396;-71
2023/08/03 06:22:20;;;;;;;7.88;1.60;;;;;;;15.46;100.00;96245.78;5071055;28;20918;-72
2023/08/03 06:24:46;;;;;;;3.50;1.20;;;;;;;15.55;100.00;96249.28;5070883;28;20935;-72
2023/08/03 06:27:13;;;;;;;7.87;2.10;;;;;;;15.47;100.00;96247.34;5070928;28;20522;-72
2023/08/03 06:29:39;;;;;;;4.53;1.40;;;;;;;15.52;100.00;96251.75;5070443;28;20429;-72
2023/08/03 06:32:16;;;;;;;6.15;1.50;;;;;;;15.42;100.00;96252.81;5070791;28;20415;-72
2023/08/03 06:34:43;;;;;;;12.43;2.47;;;;;;;15.43;100.00;96236.50;5070976;28;20887;-72
2023/08/03 06:37:09;;;;;;;8.10;1.50;;;;;;;15.56;100.00;96252.75;5070631;28;20894;-72
2023/08/03 06:39:35;;;;;;;5.50;1.50;;;;;;;15.65;100.00;96261.53;5070700;28;20404;-72
2023/08/03 06:42:02;;;;;;;8.35;1.60;;;;;;;15.72;100.00;96253.84;5070744;28;20410;-71
2023/08/03 06:44:29;;;;;;;9.75;1.75;;;;;;;15.78;100.00;96257.97;5070719;28;20490;-72
2023/08/03 06:46:55;;;;;;;5.28;1.58;;;;;;;15.96;100.00;96253.44;5070469;28;20461;-72
2023/08/03 06:49:23;;;;;;;4.95;1.35;;;;;;;15.97;100.00;96257.69;5070666;28;20439;-72
2023/08/03 06:51:49;;;;;;;7.93;1.70;;;;;;;16.02;100.00;96260.19;5070555;28;20769;-71
2023/08/03 06:54:15;;;;;;;5.03;1.50;;;;;;;16.08;100.00;96280.31;5070624;28;21000;-72
2023/08/03 06:56:41;;;;;;;4.50;1.63;;;;;;;16.16;100.00;96253.59;5070440;28;20396;-71
2023/08/03 06:59:08;;;;;;;8.73;1.80;;;;;;;16.19;100.00;96268.22;5070616;28;20425;-71
2023/08/03 07:01:34;;;;;;;10.43;1.70;;;;;;;16.23;100.00;96264.63;5070294;28;20411;-71
2023/08/03 07:04:00;;;;;;;9.20;1.80;;;;;;;16.19;100.00;96262.88;5070474;28;20404;-71
2023/08/03 07:06:28;;;;;;;8.37;1.73;;;;;;;16.27;100.00;96272.78;5070348;28;21053;-72
2023/08/03 07:08:54;;;;;;;4.80;1.42;;;;;;;16.27;100.00;96273.56;5070341;28;20416;-72
2023/08/03 07:11:20;;;;;;;11.77;1.95;;;;;;;16.33;100.00;96257.38;5070295;28;20495;-72
2023/08/03 07:13:46;;;;;;;6.93;1.55;;;;;;;16.40;100.00;96265.69;5070572;28;20522;-72
2023/08/03 07:16:12;;;;;;;2.85;1.20;;;;;;;16.46;100.00;96275.91;5070298;28;20399;-72
2023/08/03 07:18:39;;;;;;;8.17;1.60;;;;;;;16.23;100.00;96266.50;5052225;28;20442;-72
2023/08/03 07:21:05;;;;;;;5.78;1.60;;;;;;;16.43;100.00;96275.75;5052247;28;20939;-72
2023/08/03 07:23:34;;;;;;;7.57;1.37;;;;;;;16.52;100.00;96274.66;5070247;28;20453;-72
2023/08/03 07:26:00;;;;;;;6.72;1.65;;;;;;;16.59;100.00;96276.84;5070189;28;20431;-72
2023/08/03 07:28:26;;;;;;;4.60;1.30;;;;;;;16.50;100.00;96266.16;5070001;28;20403;-71
2023/08/03 07:30:52;;;;;;;5.72;1.52;;;;;;;16.59;100.00;96276.84;5069994;28;20532;-72
2023/08/03 07:33:18;;;;;;;4.93;1.35;;;;;;;16.61;100.00;96278.13;5070212;28;20471;-72
2023/08/03 07:35:44;;;;;;;3.67;1.20;;;;;;;16.83;100.00;96266.47;5070165;28;20417;-71
2023/08/03 07:38:11;;;;;;;6.75;1.20;;;;;;;16.74;100.00;96291.63;5069967;28;20566;-72
2023/08/03 07:40:39;;;;;;;3.90;1.40;;;;;;;16.75;100.00;96272.63;5069966;28;20412;-72
2023/08/03 07:43:06;;;;;;;3.55;1.30;;;;;;;16.80;100.00;96268.97;5074242;28;20396;-72
2023/08/03 07:45:32;;;;;;;9.73;1.73;;;;;;;16.88;100.00;96281.53;5074009;28;20468;-72
2023/08/03 07:47:58;;;;;;;4.95;1.20;;;;;;;16.91;100.00;96280.91;5074071;28;20788;-72
2023/08/03 07:50:24;;;;;;;3.70;1.30;;;;;;;16.78;100.00;96279.97;5074062;28;20482;-72
2023/08/03 07:52:50;;;;;;;7.15;1.33;;;;;;;16.81;100.00;96287.38;5073888;28;20444;-72
2023/08/03 07:55:16;;;;;;;7.10;1.48;;;;;;;16.77;100.00;96291.75;5073886;28;20808;-72
2023/08/03 07:57:44;;;;;;;5.88;1.48;;;;;;;16.86;100.00;96302.44;5074128;28;20420;-72
2023/08/03 08:00:11;;;;;;;6.75;1.80;;;;;;;16.92;100.00;96283.25;5073881;28;20781;-71
2023/08/03 08:02:37;;;;;;;5.15;1.27;;;;;;;16.95;100.00;96284.50;5073581;28;20877;-72
2023/08/03 08:05:04;;;;;;;5.50;1.30;;;;;;;17.12;100.00;96297.06;5073745;28;20396;-72
2023/08/03 08:07:30;;;;;;;5.63;1.00;;;;;;;17.20;100.00;96289.00;5073484;28;20472;-71
2023/08/03 08:09:56;;;;;;;2.13;1.00;;;;;;;17.31;100.00;96308.16;5073810;28;20446;-71
2023/08/03 08:12:23;;;;;;;6.55;1.50;;;;;;;17.55;100.00;96305.69;5073505;28;20774;-71
2023/08/03 08:14:50;;;;;;;5.82;1.65;;;;;;;17.40;100.00;96306.25;5073601;28;20411;-72
2023/08/03 08:17:16;;;;;;;2.30;1.10;;;;;;;17.64;100.00;96313.72;5073438;28;20893;-72
2023/08/03 08:19:43;;;;;;;6.75;1.35;;;;;;;17.85;100.00;96335.19;5073628;28;20396;-72
2023/08/03 08:22:11;;;;;;;6.00;1.40;;;;;;;18.04;100.00;96328.31;5073390;28;20757;-71
2023/08/03 08:24:37;;;;;;;5.75;1.60;;;;;;;17.95;100.00;96326.81;5073108;28;20474;-72
2023/08/03 08:27:04;;;;;;;5.87;1.30;;;;;;;17.79;100.00;96321.22;5073181;28;20434;-71
2023/08/03 08:29:31;;;;;;;4.20;1.23;;;;;;;17.85;100.00;96330.63;5073192;28;20819;-71
2023/08/03 08:31:58;;;;;;;5.28;1.60;;;;;;;17.85;100.00;96330.63;5073370;28;20400;-71
2023/08/03 08:34:24;;;;;;;6.53;1.63;;;;;;;17.84;100.00;96337.09;5073187;28;20403;-71
2023/08/03 08:36:51;;;;;;;4.93;1.40;;;;;;;17.92;100.00;96341.59;5073120;28;20403;-71
2023/08/03 08:39:18;;;;;;;3.85;1.00;;;;;;;17.96;100.00;96339.88;5073198;28;20764;-71
2023/08/03 08:41:44;;;;;;;3.37;1.57;;;;;;;17.72;100.00;96327.06;5073021;28;20410;-71
2023/08/03 08:44:13;;;;;;;4.07;1.20;;;;;;;18.15;100.00;96350.16;5073094;28;20407;-72
2023/08/03 08:46:42;;;;;;;3.80;1.35;;;;;;;18.12;100.00;96350.78;5072803;28;20412;-71
2023/08/03 08:49:11;;;;;;;3.45;1.30;;;;;;;18.29;100.00;96347.22;5073125;28;20404;-70
2023/08/03 08:51:40;;;;;;;4.13;1.15;;;;;;;18.37;100.00;96331.09;5072899;28;20403;-70
2023/08/03 08:54:06;;;;;;;3.20;1.38;;;;;;;18.57;100.00;96331.47;5072248;28;20396;-71
2023/08/03 08:56:32;;;;;;;6.40;1.38;;;;;;;18.44;100.00;96341.28;5072807;28;20434;-71
2023/08/03 08:58:58;;;;;;;6.00;1.20;;;;;;;18.54;100.00;96355.09;5072760;28;21111;-71
2023/08/03 09:01:25;;;;;;;5.25;1.17;;;;;;;18.55;100.00;96350.50;5072770;28;20412;-71
2023/08/03 09:03:52;;;;;;;4.30;1.10;;;;;;;18.69;100.00;96361.78;5072794;28;20404;-71
2023/08/03 09:06:21;;;;;;;3.25;1.00;;;;;;;18.83;100.00;96362.28;5072520;28;20422;-71
2023/08/03 09:08:53;;;;;;;4.00;1.20;;;;;;;19.12;100.00;96371.34;5072664;28;20471;-72
2023/08/03 09:11:34;;;;;;;5.90;1.30;;;;;;;19.11;100.00;96369.78;5072580;28;20462;-71
2023/08/03 09:14:00;;;;;;;3.38;1.10;;;;;;;18.97;100.00;96370.06;5072564;28;20690;-71
2023/08/03 09:16:27;;;;;;;3.08;0.90;;;;;;;19.06;100.00;96362.72;5072512;28;20490;-71
2023/08/03 09:18:54;;;;;;;4.13;0.90;;;;;;;19.00;100.00;96357.91;5072261;28;20396;-71
2023/08/03 09:21:22;;;;;;;4.23;1.03;;;;;;;19.11;100.00;96378.59;5072075;28;20403;-71
2023/08/03 09:23:48;;;;;;;1.80;0.70;;;;;;;19.23;100.00;96373.28;5072208;28;20474;-71
2023/08/03 09:26:20;;;;;;;2.08;0.90;;;;;;;19.32;100.00;96382.00;5071987;28;20415;-70
2023/08/03 09:28:46;;;;;;;2.22;0.82;;;;;;;19.44;100.00;96380.50;5071829;28;20395;-71
2023/08/03 09:31:21;;;;;;;1.58;0.80;;;;;;;19.40;100.00;96380.34;5071939;28;20476;-71
2023/08/03 09:33:55;;;;;;;2.35;0.90;;;;;;;19.52;100.00;96371.59;5072159;28;20396;-71
2023/08/03 09:36:23;;;;;;;4.17;0.90;;;;;;;19.69;100.00;96390.19;5071917;28;20487;-72
2023/08/03 09:38:49;;;;;;;2.20;0.90;;;;;;;19.95;100.00;96401.41;5071859;28;20399;-71
2023/08/03 09:41:31;;;;;;;2.85;0.90;;;;;;;19.97;100.00;96391.13;5071691;28;20922;-71
2023/08/03 09:43:58;;;;;;;4.10;1.30;;;;;;;19.84;100.00;96405.66;5071688;28;20407;-71
2023/08/03 09:46:26;;;;;;;3.67;0.70;;;;;;;20.00;100.00;96397.72;5071536;28;20419;-71
2023/08/03 09:48:52;;;;;;;2.67;0.90;;;;;;;19.88;100.00;96395.03;5071532;28;20473;-72
2023/08/03 09:51:24;;;;;;;4.45;1.02;;;;;;;19.67;100.00;96390.53;5071460;28;20801;-71
2023/08/03 09:53:55;;;;;;;2.10;0.82;;;;;;;20.04;100.00;96404.00;5071571;28;20400;-71
2023/08/03 09:56:28;;;;;;;4.32;0.95;;;;;;;20.24;100.00;96386.19;5071498;28;21050;-71
2023/08/03 09:58:59;;;;;;;3.00;0.80;;;;;;;20.36;100.00;96403.13;5071339;28;20751;-71
2023/08/03 10:01:27;;;;;;;3.70;0.93;;;;;;;20.30;100.00;96409.00;5071392;28;20399;-72
2023/08/03 10:03:58;;;;;;;2.20;0.95;;;;;;;20.25;100.00;96411.94;5071305;28;20402;-72
2023/08/03 10:06:32;;;;;;;5.05;0.80;;;;;;;20.01;100.00;96421.56;5070489;28;20411;-72
2023/08/03 10:09:02;;;;;;;3.53;0.98;;;;;;;19.78;100.00;96417.72;5053459;28;20410;-71
2023/08/03 10:11:31;;;;;;;2.47;0.90;;;;;;;19.82;100.00;96412.47;5071293;28;20408;-71
2023/08/03 10:14:03;;;;;;;1.73;0.80;;;;;;;19.55;100.00;96420.03;5071343;28;20400;-71
2023/08/03 10:16:31;;;;;;;3.47;0.80;;;;;;;19.51;100.00;96416.44;5071290;28;20388;-71
2023/08/03 10:18:58;;;;;;;5.22;1.00;;;;;;;19.50;100.00;96406.81;5071176;28;20477;-71
2023/08/03 10:21:26;;;;;;;2.20;1.13;;;;;;;19.60;100.00;96419.03;5071115;28;20874;-71
2023/08/03 10:24:09;;;;;;;3.92;1.10;;;;;;;19.69;100.00;96427.78;5071040;28;20430;-71
2023/08/03 10:26:36;;;;;;;3.22;1.02;;;;;;;19.78;100.00;96416.94;5070925;28;20434;-72
2023/08/03 10:29:04;;;;;;;3.07;0.97;;;;;;;19.84;100.00;96413.72;5071237;28;20399;-71
2023/08/03 10:31:31;;;;;;;2.58;0.90;;;;;;;20.08;100.00;96416.41;5070977;28;20522;-72
2023/08/03 10:34:04;;;;;;;4.05;0.93;;;;;;;20.04;100.00;96428.97;5053047;28;20891;-72
2023/08/03 10:36:43;;;;;;;4.30;1.00;;;;;;;19.83;100.00;96430.94;5070912;28;20404;-71
2023/08/03 10:39:12;;;;;;;2.88;0.88;;;;;;;19.73;100.00;96430.59;5070997;28;20399;-71
2023/08/03 10:41:40;;;;;;;1.95;0.70;;;;;;;19.70;100.00;96432.03;5070775;28;20438;-71
2023/08/03 10:44:27;;;;;;;3.20;0.80;;;;;;;19.56;100.00;96426.19;5070864;28;20431;-71
2023/08/03 10:46:56;;;;;;;3.17;0.83;;;;;;;19.62;100.00;96425.63;5070551;28;20761;-72
2023/08/03 10:49:52;;;;;;;5.05;0.82;;;;;;;19.43;100.00;96429.91;5070755;28;20406;-71
2023/08/03 10:52:22;;;;;;;2.03;0.77;;;;;;;19.36;100.00;96432.34;5070484;28;20388;-72
2023/08/03 10:54:49;;;;;;;3.63;0.88;;;;;;;19.48;100.00;96435.09;5070735;28;20395;-71
2023/08/03 10:57:18;;;;;;;4.65;0.80;;;;;;;19.47;100.00;96437.00;5070423;28;20924;-71
2023/08/03 10:59:46;;;;;;;4.20;1.13;;;;;;;19.57;100.00;96438.50;5070721;28;20396;-71
2023/08/03 11:02:14;;;;;;;2.30;0.90;;;;;;;19.55;100.00;96436.13;5070591;28;20488;-71
2023/08/03 11:04:42;;;;;;;4.60;0.98;;;;;;;19.58;100.00;96435.47;5070601;28;20885;-71
2023/08/03 11:07:10;;;;;;;4.30;0.98;;;;;;;19.44;100.00;96429.59;5070254;28;20447;-72
2023/08/03 11:09:38;;;;;;;3.60;0.80;;;;;;;19.71;100.00;96438.97;5070524;28;20395;-71
2023/08/03 11:12:06;;;;;;;2.30;0.90;;;;;;;20.06;100.00;96436.69;5070479;28;20396;-71
2023/08/03 11:14:33;;;;;;;3.50;0.90;;;;;;;20.24;100.00;96432.66;5070345;28;20920;-72
2023/08/03 11:17:00;;;;;;;2.03;0.70;;;;;;;20.30;100.00;96435.88;5069931;28;20910;-71
2023/08/03 11:19:32;;;;;;;2.15;0.80;;;;;;;20.39;100.00;96437.38;5070332;28;20404;-71
2023/08/03 11:21:59;;;;;;;8.15;1.52;;;;;;;20.43;100.00;96445.56;5070280;28;20406;-71